sensor_id;sensor_type;location;lat;lon;timestamp;P1;durP1;ratioP1;P2;durP2;ratioP2
13230;SDS011;6681;53.254;10.398;2023-05-09T00:00:42;3.10;;;2.50;;
13230;SDS011;6681;53.254;10.398;2023-05-09T00:03:08;5.23;;;2.53;;
13230;SDS011;6681;53.254;10.398;2023-05-09T00:05:34;4.83;;;2.33;;
13230;SDS011;6681;53.254;10.398;2023-05-09T00:07:59;3.27;;;1.97;;
13230;SDS011;6681;53.254;10.398;2023-05-09T00:10:25;1.97;;;1.87;;
13230;SDS011;6681;53.254;10.398;2023-05-09T00:12:51;1.83;;;1.73;;
13230;SDS011;6681;53.254;10.398;2023-05-09T00:15:17;2.87;;;1.97;;
13230;SDS011;6681;53.254;10.398;2023-05-09T00:17:43;3.40;;;3.10;;
13230;SDS011;6681;53.254;10.398;2023-05-09T00:20:09;2.43;;;1.90;;
13230;SDS011;6681;53.254;10.398;2023-05-09T00:22:36;2.47;;;2.13;;
13230;SDS011;6681;53.254;10.398;2023-05-09T00:25:05;4.73;;;2.40;;
13230;SDS011;6681;53.254;10.398;2023-05-09T00:27:31;5.47;;;1.87;;
13230;SDS011;6681;53.254;10.398;2023-05-09T00:29:57;3.57;;;1.70;;
13230;SDS011;6681;53.254;10.398;2023-05-09T00:32:22;3.40;;;3.10;;
13230;SDS011;6681;53.254;10.398;2023-05-09T00:34:49;2.60;;;1.97;;
13230;SDS011;6681;53.254;10.398;2023-05-09T00:37:15;5.87;;;2.53;;
13230;SDS011;6681;53.254;10.398;2023-05-09T00:39:43;3.60;;;1.73;;
13230;SDS011;6681;53.254;10.398;2023-05-09T00:42:09;5.47;;;2.97;;
13230;SDS011;6681;53.254;10.398;2023-05-09T00:44:35;3.53;;;2.20;;
13230;SDS011;6681;53.254;10.398;2023-05-09T00:47:01;3.83;;;1.97;;
13230;SDS011;6681;53.254;10.398;2023-05-09T00:49:26;4.23;;;1.93;;
13230;SDS011;6681;53.254;10.398;2023-05-09T00:51:53;3.13;;;2.03;;
13230;SDS011;6681;53.254;10.398;2023-05-09T00:54:19;2.20;;;1.97;;
13230;SDS011;6681;53.254;10.398;2023-05-09T00:56:45;5.30;;;2.40;;
13230;SDS011;6681;53.254;10.398;2023-05-09T00:59:11;3.23;;;2.33;;
13230;SDS011;6681;53.254;10.398;2023-05-09T01:01:37;2.60;;;2.40;;
13230;SDS011;6681;53.254;10.398;2023-05-09T01:04:02;2.53;;;2.33;;
13230;SDS011;6681;53.254;10.398;2023-05-09T01:11:38;8.87;;;3.07;;
13230;SDS011;6681;53.254;10.398;2023-05-09T01:23:02;3.50;;;2.30;;
13230;SDS011;6681;53.254;10.398;2023-05-09T01:31:25;4.67;;;3.77;;
13230;SDS011;6681;53.254;10.398;2023-05-09T01:33:53;3.30;;;2.50;;
13230;SDS011;6681;53.254;10.398;2023-05-09T01:36:22;3.60;;;2.37;;
13230;SDS011;6681;53.254;10.398;2023-05-09T01:38:50;3.87;;;2.80;;
13230;SDS011;6681;53.254;10.398;2023-05-09T01:41:17;5.30;;;2.73;;
13230;SDS011;6681;53.254;10.398;2023-05-09T01:43:46;5.27;;;2.40;;
13230;SDS011;6681;53.254;10.398;2023-05-09T01:46:13;3.40;;;2.63;;
13230;SDS011;6681;53.254;10.398;2023-05-09T01:48:41;7.17;;;4.17;;
13230;SDS011;6681;53.254;10.398;2023-05-09T01:51:08;3.97;;;3.33;;
13230;SDS011;6681;53.254;10.398;2023-05-09T01:53:37;2.20;;;2.00;;
13230;SDS011;6681;53.254;10.398;2023-05-09T01:56:04;4.30;;;2.90;;
13230;SDS011;6681;53.254;10.398;2023-05-09T01:58:33;2.73;;;2.53;;
13230;SDS011;6681;53.254;10.398;2023-05-09T02:01:01;5.00;;;2.60;;
13230;SDS011;6681;53.254;10.398;2023-05-09T02:03:27;4.80;;;2.73;;
13230;SDS011;6681;53.254;10.398;2023-05-09T02:05:53;4.30;;;2.67;;
13230;SDS011;6681;53.254;10.398;2023-05-09T02:08:20;8.43;;;2.93;;
13230;SDS011;6681;53.254;10.398;2023-05-09T02:10:49;5.30;;;2.90;;
13230;SDS011;6681;53.254;10.398;2023-05-09T02:13:15;5.70;;;3.23;;
13230;SDS011;6681;53.254;10.398;2023-05-09T02:15:41;3.53;;;2.97;;
13230;SDS011;6681;53.254;10.398;2023-05-09T02:18:08;6.10;;;3.10;;
13230;SDS011;6681;53.254;10.398;2023-05-09T02:20:33;8.33;;;3.17;;
13230;SDS011;6681;53.254;10.398;2023-05-09T02:23:02;9.93;;;3.33;;
13230;SDS011;6681;53.254;10.398;2023-05-09T02:25:27;6.37;;;3.80;;
13230;SDS011;6681;53.254;10.398;2023-05-09T02:27:54;3.67;;;2.60;;
13230;SDS011;6681;53.254;10.398;2023-05-09T02:30:22;4.60;;;4.00;;
13230;SDS011;6681;53.254;10.398;2023-05-09T02:32:58;4.30;;;2.80;;
13230;SDS011;6681;53.254;10.398;2023-05-09T02:35:27;3.23;;;2.93;;
13230;SDS011;6681;53.254;10.398;2023-05-09T02:37:53;4.13;;;3.73;;
13230;SDS011;6681;53.254;10.398;2023-05-09T02:40:20;3.60;;;3.30;;
13230;SDS011;6681;53.254;10.398;2023-05-09T02:42:46;6.00;;;3.00;;
13230;SDS011;6681;53.254;10.398;2023-05-09T02:45:49;4.07;;;3.23;;
13230;SDS011;6681;53.254;10.398;2023-05-09T02:48:15;8.53;;;3.87;;
13230;SDS011;6681;53.254;10.398;2023-05-09T02:50:41;5.43;;;3.90;;
13230;SDS011;6681;53.254;10.398;2023-05-09T02:53:10;5.43;;;3.27;;
13230;SDS011;6681;53.254;10.398;2023-05-09T02:55:35;8.30;;;3.20;;
13230;SDS011;6681;53.254;10.398;2023-05-09T02:58:01;4.20;;;3.67;;
13230;SDS011;6681;53.254;10.398;2023-05-09T03:00:27;9.77;;;4.03;;
13230;SDS011;6681;53.254;10.398;2023-05-09T03:02:52;3.97;;;3.40;;
13230;SDS011;6681;53.254;10.398;2023-05-09T03:05:18;3.37;;;3.07;;
13230;SDS011;6681;53.254;10.398;2023-05-09T03:07:44;5.73;;;2.83;;
13230;SDS011;6681;53.254;10.398;2023-05-09T03:10:10;3.43;;;3.13;;
13230;SDS011;6681;53.254;10.398;2023-05-09T03:12:36;5.13;;;3.97;;
13230;SDS011;6681;53.254;10.398;2023-05-09T03:15:03;9.07;;;4.70;;
13230;SDS011;6681;53.254;10.398;2023-05-09T03:17:30;4.23;;;3.83;;
13230;SDS011;6681;53.254;10.398;2023-05-09T03:19:55;5.27;;;3.73;;
13230;SDS011;6681;53.254;10.398;2023-05-09T03:22:21;5.67;;;3.97;;
13230;SDS011;6681;53.254;10.398;2023-05-09T03:24:47;9.40;;;4.37;;
13230;SDS011;6681;53.254;10.398;2023-05-09T03:30:34;7.20;;;3.90;;
13230;SDS011;6681;53.254;10.398;2023-05-09T03:33:00;5.80;;;3.93;;
13230;SDS011;6681;53.254;10.398;2023-05-09T03:35:26;4.17;;;3.77;;
13230;SDS011;6681;53.254;10.398;2023-05-09T03:37:52;4.90;;;3.90;;
13230;SDS011;6681;53.254;10.398;2023-05-09T03:40:17;4.93;;;4.43;;
13230;SDS011;6681;53.254;10.398;2023-05-09T03:42:43;4.37;;;3.73;;
13230;SDS011;6681;53.254;10.398;2023-05-09T03:45:08;4.63;;;4.03;;
13230;SDS011;6681;53.254;10.398;2023-05-09T03:47:34;3.93;;;3.53;;
13230;SDS011;6681;53.254;10.398;2023-05-09T03:50:00;6.27;;;4.80;;
13230;SDS011;6681;53.254;10.398;2023-05-09T03:52:26;5.03;;;3.87;;
13230;SDS011;6681;53.254;10.398;2023-05-09T03:54:51;3.73;;;3.33;;
13230;SDS011;6681;53.254;10.398;2023-05-09T03:57:17;4.97;;;4.07;;
13230;SDS011;6681;53.254;10.398;2023-05-09T03:59:42;4.20;;;3.77;;
13230;SDS011;6681;53.254;10.398;2023-05-09T04:02:11;4.93;;;4.20;;
13230;SDS011;6681;53.254;10.398;2023-05-09T04:04:37;6.27;;;3.93;;
13230;SDS011;6681;53.254;10.398;2023-05-09T04:07:03;4.73;;;4.23;;
13230;SDS011;6681;53.254;10.398;2023-05-09T04:09:29;4.67;;;4.20;;
13230;SDS011;6681;53.254;10.398;2023-05-09T04:11:54;8.20;;;4.17;;
13230;SDS011;6681;53.254;10.398;2023-05-09T04:14:20;9.70;;;4.30;;
13230;SDS011;6681;53.254;10.398;2023-05-09T04:16:46;7.00;;;4.20;;
13230;SDS011;6681;53.254;10.398;2023-05-09T04:19:11;7.53;;;4.27;;
13230;SDS011;6681;53.254;10.398;2023-05-09T04:21:37;4.53;;;4.13;;
13230;SDS011;6681;53.254;10.398;2023-05-09T04:24:02;5.73;;;4.53;;
13230;SDS011;6681;53.254;10.398;2023-05-09T04:26:28;4.17;;;3.77;;
13230;SDS011;6681;53.254;10.398;2023-05-09T04:28:55;6.10;;;4.40;;
13230;SDS011;6681;53.254;10.398;2023-05-09T04:31:20;6.87;;;4.33;;
13230;SDS011;6681;53.254;10.398;2023-05-09T04:33:47;4.07;;;3.60;;
13230;SDS011;6681;53.254;10.398;2023-05-09T04:36:12;8.33;;;5.77;;
13230;SDS011;6681;53.254;10.398;2023-05-09T04:38:38;5.40;;;4.03;;
13230;SDS011;6681;53.254;10.398;2023-05-09T04:41:03;8.47;;;4.40;;
13230;SDS011;6681;53.254;10.398;2023-05-09T04:43:29;5.13;;;4.63;;
13230;SDS011;6681;53.254;10.398;2023-05-09T04:45:56;4.57;;;4.17;;
13230;SDS011;6681;53.254;10.398;2023-05-09T04:48:22;7.17;;;4.57;;
13230;SDS011;6681;53.254;10.398;2023-05-09T04:50:47;5.80;;;4.10;;
13230;SDS011;6681;53.254;10.398;2023-05-09T04:53:13;4.53;;;4.13;;
13230;SDS011;6681;53.254;10.398;2023-05-09T04:55:38;5.93;;;4.80;;
13230;SDS011;6681;53.254;10.398;2023-05-09T04:58:04;5.10;;;4.10;;
13230;SDS011;6681;53.254;10.398;2023-05-09T05:00:30;7.37;;;5.57;;
13230;SDS011;6681;53.254;10.398;2023-05-09T05:02:56;5.20;;;4.60;;
13230;SDS011;6681;53.254;10.398;2023-05-09T05:05:21;7.67;;;4.87;;
13230;SDS011;6681;53.254;10.398;2023-05-09T05:07:47;5.37;;;4.30;;
13230;SDS011;6681;53.254;10.398;2023-05-09T05:10:13;4.90;;;4.50;;
13230;SDS011;6681;53.254;10.398;2023-05-09T05:12:38;7.03;;;5.10;;
13230;SDS011;6681;53.254;10.398;2023-05-09T05:15:04;6.50;;;4.47;;
13230;SDS011;6681;53.254;10.398;2023-05-09T05:17:30;4.63;;;4.27;;
13230;SDS011;6681;53.254;10.398;2023-05-09T05:19:56;9.73;;;3.87;;
13230;SDS011;6681;53.254;10.398;2023-05-09T05:22:22;6.10;;;4.60;;
13230;SDS011;6681;53.254;10.398;2023-05-09T05:24:48;5.30;;;4.13;;
13230;SDS011;6681;53.254;10.398;2023-05-09T05:27:13;6.07;;;4.67;;
13230;SDS011;6681;53.254;10.398;2023-05-09T05:29:39;9.10;;;5.00;;
13230;SDS011;6681;53.254;10.398;2023-05-09T05:32:05;6.50;;;4.57;;
13230;SDS011;6681;53.254;10.398;2023-05-09T05:34:30;6.63;;;4.97;;
13230;SDS011;6681;53.254;10.398;2023-05-09T05:36:56;4.87;;;3.43;;
13230;SDS011;6681;53.254;10.398;2023-05-09T05:39:22;7.87;;;4.67;;
13230;SDS011;6681;53.254;10.398;2023-05-09T05:41:48;6.37;;;4.40;;
13230;SDS011;6681;53.254;10.398;2023-05-09T05:44:15;6.97;;;4.97;;
13230;SDS011;6681;53.254;10.398;2023-05-09T05:46:41;5.97;;;3.83;;
13230;SDS011;6681;53.254;10.398;2023-05-09T05:49:07;6.27;;;5.33;;
13230;SDS011;6681;53.254;10.398;2023-05-09T05:51:32;4.37;;;3.97;;
13230;SDS011;6681;53.254;10.398;2023-05-09T05:53:58;7.30;;;5.03;;
13230;SDS011;6681;53.254;10.398;2023-05-09T05:56:23;7.50;;;4.97;;
13230;SDS011;6681;53.254;10.398;2023-05-09T05:58:50;7.87;;;4.37;;
13230;SDS011;6681;53.254;10.398;2023-05-09T06:01:15;8.60;;;4.33;;
13230;SDS011;6681;53.254;10.398;2023-05-09T06:03:41;7.37;;;4.83;;
13230;SDS011;6681;53.254;10.398;2023-05-09T06:06:06;3.53;;;3.23;;
13230;SDS011;6681;53.254;10.398;2023-05-09T06:08:32;8.73;;;4.23;;
13230;SDS011;6681;53.254;10.398;2023-05-09T06:10:59;8.93;;;4.13;;
13230;SDS011;6681;53.254;10.398;2023-05-09T06:13:26;4.90;;;4.13;;
13230;SDS011;6681;53.254;10.398;2023-05-09T06:15:54;4.73;;;4.00;;
13230;SDS011;6681;53.254;10.398;2023-05-09T06:18:20;4.33;;;3.73;;
13230;SDS011;6681;53.254;10.398;2023-05-09T06:20:46;3.93;;;3.60;;
13230;SDS011;6681;53.254;10.398;2023-05-09T06:23:12;5.90;;;4.47;;
13230;SDS011;6681;53.254;10.398;2023-05-09T06:25:37;3.87;;;3.43;;
13230;SDS011;6681;53.254;10.398;2023-05-09T06:28:03;5.70;;;4.20;;
13230;SDS011;6681;53.254;10.398;2023-05-09T06:30:28;7.60;;;4.03;;
13230;SDS011;6681;53.254;10.398;2023-05-09T06:32:54;4.63;;;4.17;;
13230;SDS011;6681;53.254;10.398;2023-05-09T06:35:22;4.30;;;3.90;;
13230;SDS011;6681;53.254;10.398;2023-05-09T06:37:48;8.43;;;3.47;;
13230;SDS011;6681;53.254;10.398;2023-05-09T06:40:14;5.53;;;4.47;;
13230;SDS011;6681;53.254;10.398;2023-05-09T06:42:40;3.67;;;3.23;;
13230;SDS011;6681;53.254;10.398;2023-05-09T06:45:05;5.57;;;4.17;;
13230;SDS011;6681;53.254;10.398;2023-05-09T06:47:31;4.07;;;3.63;;
13230;SDS011;6681;53.254;10.398;2023-05-09T06:49:57;4.03;;;3.20;;
13230;SDS011;6681;53.254;10.398;2023-05-09T06:52:22;9.10;;;3.57;;
13230;SDS011;6681;53.254;10.398;2023-05-09T06:54:48;6.47;;;3.57;;
13230;SDS011;6681;53.254;10.398;2023-05-09T06:57:14;3.87;;;3.53;;
13230;SDS011;6681;53.254;10.398;2023-05-09T06:59:39;5.57;;;3.47;;
13230;SDS011;6681;53.254;10.398;2023-05-09T07:02:05;4.90;;;3.53;;
13230;SDS011;6681;53.254;10.398;2023-05-09T07:04:31;3.87;;;3.27;;
13230;SDS011;6681;53.254;10.398;2023-05-09T07:06:56;3.10;;;2.67;;
13230;SDS011;6681;53.254;10.398;2023-05-09T07:09:24;4.77;;;3.80;;
13230;SDS011;6681;53.254;10.398;2023-05-09T07:11:52;3.30;;;2.23;;
13230;SDS011;6681;53.254;10.398;2023-05-09T07:14:22;7.90;;;4.17;;
13230;SDS011;6681;53.254;10.398;2023-05-09T07:16:47;3.80;;;3.43;;
13230;SDS011;6681;53.254;10.398;2023-05-09T07:19:13;4.83;;;3.47;;
13230;SDS011;6681;53.254;10.398;2023-05-09T07:21:38;3.67;;;2.80;;
13230;SDS011;6681;53.254;10.398;2023-05-09T07:24:04;3.07;;;2.77;;
13230;SDS011;6681;53.254;10.398;2023-05-09T07:26:30;4.80;;;3.60;;
13230;SDS011;6681;53.254;10.398;2023-05-09T07:28:56;7.80;;;3.00;;
13230;SDS011;6681;53.254;10.398;2023-05-09T07:31:21;5.57;;;3.33;;
13230;SDS011;6681;53.254;10.398;2023-05-09T07:33:47;5.93;;;2.87;;
13230;SDS011;6681;53.254;10.398;2023-05-09T07:36:12;6.90;;;3.23;;
13230;SDS011;6681;53.254;10.398;2023-05-09T07:38:40;3.70;;;2.83;;
13230;SDS011;6681;53.254;10.398;2023-05-09T07:41:06;4.90;;;3.30;;
13230;SDS011;6681;53.254;10.398;2023-05-09T07:43:31;3.70;;;3.30;;
13230;SDS011;6681;53.254;10.398;2023-05-09T07:45:57;4.47;;;2.87;;
13230;SDS011;6681;53.254;10.398;2023-05-09T07:48:23;6.17;;;3.70;;
13230;SDS011;6681;53.254;10.398;2023-05-09T07:50:48;3.67;;;2.80;;
13230;SDS011;6681;53.254;10.398;2023-05-09T07:53:14;4.30;;;4.00;;
13230;SDS011;6681;53.254;10.398;2023-05-09T07:55:40;3.50;;;3.00;;
13230;SDS011;6681;53.254;10.398;2023-05-09T07:58:06;5.13;;;3.50;;
13230;SDS011;6681;53.254;10.398;2023-05-09T08:00:31;3.40;;;2.70;;
13230;SDS011;6681;53.254;10.398;2023-05-09T08:02:57;3.07;;;2.67;;
13230;SDS011;6681;53.254;10.398;2023-05-09T08:05:22;3.30;;;3.00;;
13230;SDS011;6681;53.254;10.398;2023-05-09T08:07:48;3.93;;;2.90;;
13230;SDS011;6681;53.254;10.398;2023-05-09T08:10:14;3.73;;;3.20;;
13230;SDS011;6681;53.254;10.398;2023-05-09T08:12:40;4.53;;;3.53;;
13230;SDS011;6681;53.254;10.398;2023-05-09T08:15:06;4.27;;;2.97;;
13230;SDS011;6681;53.254;10.398;2023-05-09T08:17:32;2.87;;;2.67;;
13230;SDS011;6681;53.254;10.398;2023-05-09T08:19:57;6.43;;;3.67;;
13230;SDS011;6681;53.254;10.398;2023-05-09T08:22:23;5.77;;;2.70;;
13230;SDS011;6681;53.254;10.398;2023-05-09T08:24:49;3.67;;;2.97;;
13230;SDS011;6681;53.254;10.398;2023-05-09T08:27:15;4.93;;;2.43;;
13230;SDS011;6681;53.254;10.398;2023-05-09T08:29:40;4.87;;;3.17;;
13230;SDS011;6681;53.254;10.398;2023-05-09T08:32:07;5.43;;;3.40;;
13230;SDS011;6681;53.254;10.398;2023-05-09T08:34:33;4.77;;;3.43;;
13230;SDS011;6681;53.254;10.398;2023-05-09T08:36:59;4.43;;;1.77;;
13230;SDS011;6681;53.254;10.398;2023-05-09T08:39:25;3.13;;;2.53;;
13230;SDS011;6681;53.254;10.398;2023-05-09T08:41:52;9.00;;;2.83;;
13230;SDS011;6681;53.254;10.398;2023-05-09T08:44:25;3.37;;;2.23;;
13230;SDS011;6681;53.254;10.398;2023-05-09T08:46:52;5.20;;;2.20;;
13230;SDS011;6681;53.254;10.398;2023-05-09T08:49:20;2.10;;;2.00;;
13230;SDS011;6681;53.254;10.398;2023-05-09T08:51:47;4.40;;;3.13;;
13230;SDS011;6681;53.254;10.398;2023-05-09T08:54:13;4.27;;;2.57;;
13230;SDS011;6681;53.254;10.398;2023-05-09T08:56:39;3.30;;;2.73;;
13230;SDS011;6681;53.254;10.398;2023-05-09T08:59:06;5.63;;;2.30;;
13230;SDS011;6681;53.254;10.398;2023-05-09T09:01:32;7.23;;;2.30;;
13230;SDS011;6681;53.254;10.398;2023-05-09T09:03:59;4.83;;;2.83;;
13230;SDS011;6681;53.254;10.398;2023-05-09T09:06:26;2.67;;;2.37;;
13230;SDS011;6681;53.254;10.398;2023-05-09T09:08:53;1.90;;;1.80;;
13230;SDS011;6681;53.254;10.398;2023-05-09T09:11:20;3.33;;;2.20;;
13230;SDS011;6681;53.254;10.398;2023-05-09T09:13:46;2.70;;;2.50;;
13230;SDS011;6681;53.254;10.398;2023-05-09T09:16:17;4.23;;;2.30;;
13230;SDS011;6681;53.254;10.398;2023-05-09T09:18:45;1.93;;;1.77;;
13230;SDS011;6681;53.254;10.398;2023-05-09T09:21:11;3.10;;;2.73;;
13230;SDS011;6681;53.254;10.398;2023-05-09T09:23:41;3.10;;;2.73;;
13230;SDS011;6681;53.254;10.398;2023-05-09T09:26:08;3.27;;;2.53;;
13230;SDS011;6681;53.254;10.398;2023-05-09T09:28:34;4.47;;;2.13;;
13230;SDS011;6681;53.254;10.398;2023-05-09T09:31:00;2.37;;;1.83;;
13230;SDS011;6681;53.254;10.398;2023-05-09T09:33:26;6.13;;;2.13;;
13230;SDS011;6681;53.254;10.398;2023-05-09T09:35:54;4.03;;;2.80;;
13230;SDS011;6681;53.254;10.398;2023-05-09T09:38:20;2.67;;;2.13;;
13230;SDS011;6681;53.254;10.398;2023-05-09T09:43:15;5.53;;;2.60;;
13230;SDS011;6681;53.254;10.398;2023-05-09T09:45:41;3.20;;;2.60;;
13230;SDS011;6681;53.254;10.398;2023-05-09T09:48:07;2.50;;;1.90;;
13230;SDS011;6681;53.254;10.398;2023-05-09T09:50:32;2.63;;;1.90;;
13230;SDS011;6681;53.254;10.398;2023-05-09T09:52:58;4.53;;;2.30;;
13230;SDS011;6681;53.254;10.398;2023-05-09T09:55:27;2.53;;;2.33;;
13230;SDS011;6681;53.254;10.398;2023-05-09T09:57:53;3.70;;;2.20;;
13230;SDS011;6681;53.254;10.398;2023-05-09T10:00:25;2.70;;;2.23;;
13230;SDS011;6681;53.254;10.398;2023-05-09T10:02:52;3.03;;;2.10;;
13230;SDS011;6681;53.254;10.398;2023-05-09T10:05:20;1.77;;;1.60;;
13230;SDS011;6681;53.254;10.398;2023-05-09T10:07:52;5.00;;;2.50;;
13230;SDS011;6681;53.254;10.398;2023-05-09T10:10:31;4.70;;;2.10;;
13230;SDS011;6681;53.254;10.398;2023-05-09T10:13:02;2.43;;;1.80;;
13230;SDS011;6681;53.254;10.398;2023-05-09T10:15:31;3.53;;;1.73;;
13230;SDS011;6681;53.254;10.398;2023-05-09T10:17:59;3.50;;;2.23;;
13230;SDS011;6681;53.254;10.398;2023-05-09T10:20:28;3.33;;;2.03;;
13230;SDS011;6681;53.254;10.398;2023-05-09T10:22:56;1.80;;;1.70;;
13230;SDS011;6681;53.254;10.398;2023-05-09T10:25:27;3.03;;;2.27;;
13230;SDS011;6681;53.254;10.398;2023-05-09T10:28:02;1.97;;;1.77;;
13230;SDS011;6681;53.254;10.398;2023-05-09T10:30:35;2.20;;;2.00;;
13230;SDS011;6681;53.254;10.398;2023-05-09T10:33:07;2.57;;;1.87;;
13230;SDS011;6681;53.254;10.398;2023-05-09T10:35:36;3.27;;;1.70;;
13230;SDS011;6681;53.254;10.398;2023-05-09T10:38:04;2.10;;;1.63;;
13230;SDS011;6681;53.254;10.398;2023-05-09T10:40:32;4.40;;;2.37;;
13230;SDS011;6681;53.254;10.398;2023-05-09T10:42:59;3.93;;;2.00;;
13230;SDS011;6681;53.254;10.398;2023-05-09T10:45:25;4.13;;;1.90;;
13230;SDS011;6681;53.254;10.398;2023-05-09T10:47:51;3.47;;;2.27;;
13230;SDS011;6681;53.254;10.398;2023-05-09T10:50:20;4.73;;;2.07;;
13230;SDS011;6681;53.254;10.398;2023-05-09T10:58:24;4.53;;;2.60;;
13230;SDS011;6681;53.254;10.398;2023-05-09T11:00:54;6.67;;;2.27;;
13230;SDS011;6681;53.254;10.398;2023-05-09T11:03:22;4.73;;;2.50;;
13230;SDS011;6681;53.254;10.398;2023-05-09T11:05:52;6.13;;;2.80;;
13230;SDS011;6681;53.254;10.398;2023-05-09T11:10:45;4.30;;;2.40;;
13230;SDS011;6681;53.254;10.398;2023-05-09T11:13:11;8.83;;;7.57;;
13230;SDS011;6681;53.254;10.398;2023-05-09T11:15:49;15.17;;;8.60;;
13230;SDS011;6681;53.254;10.398;2023-05-09T11:18:18;19.17;;;12.83;;
13230;SDS011;6681;53.254;10.398;2023-05-09T11:20:47;73.63;;;52.33;;
13230;SDS011;6681;53.254;10.398;2023-05-09T11:23:17;73.47;;;48.70;;
13230;SDS011;6681;53.254;10.398;2023-05-09T11:25:48;33.83;;;23.87;;
13230;SDS011;6681;53.254;10.398;2023-05-09T11:30:53;70.47;;;48.80;;
13230;SDS011;6681;53.254;10.398;2023-05-09T11:33:32;28.13;;;20.93;;
13230;SDS011;6681;53.254;10.398;2023-05-09T11:39:12;14.80;;;11.30;;
13230;SDS011;6681;53.254;10.398;2023-05-09T11:41:48;5.13;;;4.20;;
13230;SDS011;6681;53.254;10.398;2023-05-09T11:44:15;5.27;;;3.83;;
13230;SDS011;6681;53.254;10.398;2023-05-09T11:46:43;11.17;;;2.73;;
13230;SDS011;6681;53.254;10.398;2023-05-09T11:49:09;4.23;;;2.50;;
13230;SDS011;6681;53.254;10.398;2023-05-09T11:51:36;3.60;;;3.30;;
13230;SDS011;6681;53.254;10.398;2023-05-09T11:54:02;5.30;;;3.20;;
13230;SDS011;6681;53.254;10.398;2023-05-09T11:56:33;4.63;;;2.23;;
13230;SDS011;6681;53.254;10.398;2023-05-09T11:59:00;3.37;;;2.20;;
13230;SDS011;6681;53.254;10.398;2023-05-09T12:01:27;2.53;;;2.33;;
13230;SDS011;6681;53.254;10.398;2023-05-09T12:03:56;3.40;;;2.10;;
13230;SDS011;6681;53.254;10.398;2023-05-09T12:06:23;2.83;;;1.97;;
13230;SDS011;6681;53.254;10.398;2023-05-09T12:08:50;2.77;;;2.13;;
13230;SDS011;6681;53.254;10.398;2023-05-09T12:11:15;2.87;;;2.23;;
13230;SDS011;6681;53.254;10.398;2023-05-09T12:13:48;5.20;;;2.03;;
13230;SDS011;6681;53.254;10.398;2023-05-09T12:16:16;7.67;;;2.73;;
13230;SDS011;6681;53.254;10.398;2023-05-09T12:18:46;2.00;;;1.57;;
13230;SDS011;6681;53.254;10.398;2023-05-09T12:21:16;3.27;;;1.73;;
13230;SDS011;6681;53.254;10.398;2023-05-09T12:23:42;3.80;;;2.10;;
13230;SDS011;6681;53.254;10.398;2023-05-09T12:26:09;2.67;;;1.83;;
13230;SDS011;6681;53.254;10.398;2023-05-09T12:28:35;4.10;;;1.60;;
13230;SDS011;6681;53.254;10.398;2023-05-09T12:31:00;10.10;;;2.43;;
13230;SDS011;6681;53.254;10.398;2023-05-09T12:33:27;3.13;;;2.10;;
13230;SDS011;6681;53.254;10.398;2023-05-09T12:36:27;4.23;;;2.40;;
13230;SDS011;6681;53.254;10.398;2023-05-09T12:38:54;4.33;;;2.20;;
13230;SDS011;6681;53.254;10.398;2023-05-09T12:41:20;2.37;;;2.17;;
13230;SDS011;6681;53.254;10.398;2023-05-09T12:43:48;4.57;;;2.10;;
13230;SDS011;6681;53.254;10.398;2023-05-09T12:46:18;6.07;;;2.97;;
13230;SDS011;6681;53.254;10.398;2023-05-09T12:48:44;3.60;;;1.97;;
13230;SDS011;6681;53.254;10.398;2023-05-09T12:51:16;3.77;;;2.87;;
13230;SDS011;6681;53.254;10.398;2023-05-09T12:53:44;3.17;;;1.80;;
13230;SDS011;6681;53.254;10.398;2023-05-09T12:56:13;5.60;;;2.20;;
13230;SDS011;6681;53.254;10.398;2023-05-09T13:01:16;4.10;;;2.23;;
13230;SDS011;6681;53.254;10.398;2023-05-09T13:03:42;3.30;;;2.47;;
13230;SDS011;6681;53.254;10.398;2023-05-09T13:06:12;4.20;;;2.87;;
13230;SDS011;6681;53.254;10.398;2023-05-09T13:08:38;2.27;;;1.80;;
13230;SDS011;6681;53.254;10.398;2023-05-09T13:11:05;2.13;;;1.93;;
13230;SDS011;6681;53.254;10.398;2023-05-09T13:13:33;4.37;;;2.23;;
13230;SDS011;6681;53.254;10.398;2023-05-09T13:15:58;2.97;;;2.30;;
13230;SDS011;6681;53.254;10.398;2023-05-09T13:18:24;3.53;;;2.90;;
13230;SDS011;6681;53.254;10.398;2023-05-09T13:20:50;5.97;;;1.93;;
13230;SDS011;6681;53.254;10.398;2023-05-09T13:23:16;2.43;;;2.23;;
13230;SDS011;6681;53.254;10.398;2023-05-09T13:25:42;3.40;;;2.87;;
13230;SDS011;6681;53.254;10.398;2023-05-09T13:28:09;3.57;;;2.20;;
13230;SDS011;6681;53.254;10.398;2023-05-09T13:30:35;2.83;;;2.03;;
13230;SDS011;6681;53.254;10.398;2023-05-09T13:33:00;2.93;;;1.67;;
13230;SDS011;6681;53.254;10.398;2023-05-09T13:35:26;1.73;;;1.23;;
13230;SDS011;6681;53.254;10.398;2023-05-09T13:37:52;3.27;;;1.30;;
13230;SDS011;6681;53.254;10.398;2023-05-09T13:40:18;3.70;;;1.93;;
13230;SDS011;6681;53.254;10.398;2023-05-09T13:42:43;4.40;;;2.17;;
13230;SDS011;6681;53.254;10.398;2023-05-09T13:45:09;3.80;;;1.80;;
13230;SDS011;6681;53.254;10.398;2023-05-09T13:47:35;4.23;;;2.17;;
13230;SDS011;6681;53.254;10.398;2023-05-09T13:50:01;4.97;;;1.80;;
13230;SDS011;6681;53.254;10.398;2023-05-09T13:52:28;3.13;;;1.83;;
13230;SDS011;6681;53.254;10.398;2023-05-09T13:54:53;2.00;;;1.57;;
13230;SDS011;6681;53.254;10.398;2023-05-09T13:57:19;6.47;;;1.57;;
13230;SDS011;6681;53.254;10.398;2023-05-09T13:59:44;4.00;;;2.40;;
13230;SDS011;6681;53.254;10.398;2023-05-09T14:02:10;3.30;;;1.60;;
13230;SDS011;6681;53.254;10.398;2023-05-09T14:04:36;2.63;;;1.60;;
13230;SDS011;6681;53.254;10.398;2023-05-09T14:07:03;4.77;;;1.90;;
13230;SDS011;6681;53.254;10.398;2023-05-09T14:09:29;2.87;;;2.30;;
13230;SDS011;6681;53.254;10.398;2023-05-09T14:11:54;3.23;;;1.40;;
13230;SDS011;6681;53.254;10.398;2023-05-09T14:14:21;5.00;;;1.50;;
13230;SDS011;6681;53.254;10.398;2023-05-09T14:16:48;1.60;;;1.50;;
13230;SDS011;6681;53.254;10.398;2023-05-09T14:19:14;4.07;;;1.83;;
13230;SDS011;6681;53.254;10.398;2023-05-09T14:21:40;6.50;;;1.70;;
13230;SDS011;6681;53.254;10.398;2023-05-09T14:24:07;4.33;;;1.63;;
13230;SDS011;6681;53.254;10.398;2023-05-09T14:26:34;3.77;;;2.07;;
13230;SDS011;6681;53.254;10.398;2023-05-09T14:29:00;3.57;;;1.53;;
13230;SDS011;6681;53.254;10.398;2023-05-09T14:31:27;5.70;;;1.83;;
13230;SDS011;6681;53.254;10.398;2023-05-09T14:33:53;3.07;;;2.20;;
13230;SDS011;6681;53.254;10.398;2023-05-09T14:36:19;6.43;;;2.20;;
13230;SDS011;6681;53.254;10.398;2023-05-09T14:38:44;2.60;;;1.70;;
13230;SDS011;6681;53.254;10.398;2023-05-09T14:41:12;3.97;;;2.33;;
13230;SDS011;6681;53.254;10.398;2023-05-09T14:43:38;5.00;;;1.53;;
13230;SDS011;6681;53.254;10.398;2023-05-09T14:46:03;4.00;;;1.47;;
13230;SDS011;6681;53.254;10.398;2023-05-09T14:48:29;1.40;;;1.30;;
13230;SDS011;6681;53.254;10.398;2023-05-09T14:50:55;3.00;;;1.50;;
13230;SDS011;6681;53.254;10.398;2023-05-09T14:53:24;5.67;;;1.53;;
13230;SDS011;6681;53.254;10.398;2023-05-09T14:55:50;6.53;;;2.13;;
13230;SDS011;6681;53.254;10.398;2023-05-09T14:58:16;2.83;;;1.80;;
13230;SDS011;6681;53.254;10.398;2023-05-09T15:00:45;1.47;;;1.37;;
13230;SDS011;6681;53.254;10.398;2023-05-09T15:03:11;2.53;;;1.27;;
13230;SDS011;6681;53.254;10.398;2023-05-09T15:05:37;5.97;;;2.20;;
13230;SDS011;6681;53.254;10.398;2023-05-09T15:08:03;3.30;;;2.10;;
13230;SDS011;6681;53.254;10.398;2023-05-09T15:10:29;6.47;;;1.97;;
13230;SDS011;6681;53.254;10.398;2023-05-09T15:12:55;3.33;;;1.50;;
13230;SDS011;6681;53.254;10.398;2023-05-09T15:15:21;2.50;;;2.00;;
13230;SDS011;6681;53.254;10.398;2023-05-09T15:17:48;2.27;;;1.93;;
13230;SDS011;6681;53.254;10.398;2023-05-09T15:20:14;4.10;;;1.00;;
13230;SDS011;6681;53.254;10.398;2023-05-09T15:22:41;3.33;;;1.67;;
13230;SDS011;6681;53.254;10.398;2023-05-09T15:25:07;10.83;;;1.97;;
13230;SDS011;6681;53.254;10.398;2023-05-09T15:27:33;2.53;;;1.20;;